Time;durP1;ratioP1;P1;durP2;ratioP2;P2;SDS_P1;SDS_P2;PMS_P1;PMS_P2;Temp;Humidity;BMP_temperature;BMP_pressure;BME280_temperature;BME280_humidity;BME280_pressure;Samples;Min_cycle;Max_cycle;Signal;HPM_P1;HPM_P2
2023/06/11 00:02:12;;;;;;;0.50;0.30;;;20.60;99.90;;;;;;5047016;28;20457;-83
2023/06/11 00:04:45;;;;;;;0.93;0.93;;;20.50;99.90;;;;;;5045791;28;20445;-84
2023/06/11 00:07:12;;;;;;;0.50;0.30;;;20.40;99.90;;;;;;5046416;28;20890;-84
2023/06/11 00:09:39;;;;;;;0.50;0.40;;;20.40;99.90;;;;;;5046221;28;20489;-84
2023/06/11 00:12:07;;;;;;;0.50;0.30;;;20.40;99.90;;;;;;5046621;28;20442;-80
2023/06/11 00:14:34;;;;;;;0.50;0.30;;;20.30;99.90;;;;;;5046661;28;20434;-84
2023/06/11 00:17:01;;;;;;;0.50;0.40;;;20.30;99.90;;;;;;5045704;28;20501;-84
2023/06/11 00:19:30;;;;;;;0.50;0.30;;;20.20;99.90;;;;;;5046338;28;20470;-82
2023/06/11 00:22:02;;;;;;;0.50;0.37;;;20.20;99.90;;;;;;5046600;28;20505;-83
2023/06/11 00:24:29;;;;;;;0.50;0.30;;;20.20;99.90;;;;;;5046798;28;20445;-83
2023/06/11 00:26:56;;;;;;;1.23;1.17;;;20.10;99.90;;;;;;5045838;28;20468;-84
2023/06/11 00:29:23;;;;;;;0.70;0.70;;;20.10;99.90;;;;;;5045760;28;20537;-83
2023/06/11 00:31:49;;;;;;;0.50;0.30;;;20.10;99.90;;;;;;5045479;28;20469;-84
2023/06/11 00:34:16;;;;;;;0.50;0.30;;;20.10;99.90;;;;;;5045855;28;20465;-84
2023/06/11 00:36:44;;;;;;;0.50;0.30;;;20.00;99.90;;;;;;5045956;28;20430;-82
2023/06/11 00:39:12;;;;;;;0.50;0.30;;;20.00;99.90;;;;;;5044813;28;20458;-83
2023/06/11 00:41:45;;;;;;;0.50;0.30;;;19.90;99.90;;;;;;5045553;28;20513;-83
2023/06/11 00:44:17;;;;;;;0.60;0.50;;;19.90;99.90;;;;;;5045736;28;20425;-81
2023/06/11 00:46:45;;;;;;;0.50;0.50;;;19.90;99.90;;;;;;5046410;28;20922;-83
2023/06/11 00:49:12;;;;;;;0.50;0.30;;;19.80;99.90;;;;;;5046312;28;20461;-83
2023/06/11 00:51:41;;;;;;;0.50;0.40;;;19.80;99.90;;;;;;5046435;28;20892;-83
2023/06/11 00:54:08;;;;;;;0.50;0.40;;;19.80;99.90;;;;;;5049735;28;20496;-82
2023/06/11 00:56:39;;;;;;;0.50;0.40;;;19.80;99.90;;;;;;5048332;28;20442;-84
2023/06/11 00:59:07;;;;;;;0.50;0.33;;;19.80;99.90;;;;;;5048519;28;20477;-82
2023/06/11 01:01:41;;;;;;;0.50;0.30;;;19.80;99.90;;;;;;5049841;28;20445;-84
2023/06/11 01:04:11;;;;;;;0.50;0.40;;;19.70;99.90;;;;;;5049309;28;20475;-83
2023/06/11 01:06:39;;;;;;;0.50;0.40;;;19.70;99.90;;;;;;5048849;28;20442;-84
2023/06/11 01:09:07;;;;;;;0.50;0.30;;;19.70;99.90;;;;;;5049393;28;20458;-84
2023/06/11 01:11:35;;;;;;;0.50;0.40;;;19.70;99.90;;;;;;5049491;28;20457;-83
2023/06/11 01:14:04;;;;;;;1.20;0.87;;;19.60;99.90;;;;;;5041873;28;20453;-84
2023/06/11 01:16:38;;;;;;;0.83;0.83;;;19.60;99.90;;;;;;5049017;28;20438;-83
2023/06/11 01:19:20;;;;;;;0.50;0.30;;;19.60;99.90;;;;;;5049009;28;20512;-83
2023/06/11 01:21:53;;;;;;;0.50;0.40;;;19.60;99.90;;;;;;5049018;28;20441;-83
2023/06/11 01:24:28;;;;;;;0.50;0.33;;;19.60;99.90;;;;;;5049845;28;20509;-83
2023/06/11 01:27:09;;;;;;;0.50;0.40;;;19.60;99.90;;;;;;5047990;28;20794;-83
2023/06/11 01:29:45;;;;;;;0.50;0.40;;;19.50;99.90;;;;;;5049317;28;20473;-82
2023/06/11 01:32:13;;;;;;;0.50;0.50;;;19.50;99.90;;;;;;5037111;28;20433;-79
2023/06/11 01:34:41;;;;;;;0.60;0.60;;;19.40;99.90;;;;;;5036948;28;21007;-82
2023/06/11 01:37:11;;;;;;;0.70;0.70;;;19.40;99.90;;;;;;5048298;28;20465;-83
2023/06/11 01:39:38;;;;;;;0.50;0.40;;;19.40;99.90;;;;;;5048213;28;20522;-82
2023/06/11 01:42:06;;;;;;;0.50;0.30;;;19.40;99.90;;;;;;5047966;28;20442;-84
2023/06/11 01:44:33;;;;;;;0.50;0.40;;;19.40;99.90;;;;;;5047865;28;20453;-83
2023/06/11 01:47:01;;;;;;;0.50;0.40;;;19.40;99.90;;;;;;5047726;28;20502;-82
2023/06/11 01:49:28;;;;;;;1.27;0.77;;;19.30;99.90;;;;;;5048901;28;20449;-83
2023/06/11 01:51:55;;;;;;;0.50;0.40;;;19.30;99.90;;;;;;5047951;28;20477;-84
2023/06/11 01:54:22;;;;;;;0.50;0.50;;;19.30;99.90;;;;;;5048543;28;20446;-84
2023/06/11 01:56:49;;;;;;;0.60;0.57;;;19.20;99.90;;;;;;5047299;28;20438;-84
2023/06/11 01:59:17;;;;;;;0.50;0.50;;;19.20;99.90;;;;;;5047768;28;20509;-84
2023/06/11 02:01:44;;;;;;;0.50;0.30;;;19.20;99.90;;;;;;5047812;28;20441;-84
2023/06/11 02:04:12;;;;;;;0.50;0.30;;;19.20;99.90;;;;;;5047972;28;20458;-83
2023/06/11 02:06:39;;;;;;;0.50;0.30;;;19.10;99.90;;;;;;5048164;28;20482;-83
2023/06/11 02:09:06;;;;;;;0.50;0.30;;;19.10;99.90;;;;;;5048229;28;20826;-82
2023/06/11 02:11:33;;;;;;;0.60;0.50;;;19.00;99.90;;;;;;5047631;28;20506;-83
2023/06/11 02:13:59;;;;;;;0.60;0.50;;;19.00;99.90;;;;;;5047789;28;20439;-83
2023/06/11 02:16:26;;;;;;;2.50;0.60;;;19.00;99.90;;;;;;5047932;28;20469;-83
2023/06/11 02:18:53;;;;;;;2.93;1.43;;;18.90;99.90;;;;;;5047337;28;20845;-83
2023/06/11 02:21:21;;;;;;;0.50;0.40;;;18.90;99.90;;;;;;5046876;28;20533;-82
2023/06/11 02:23:49;;;;;;;0.50;0.30;;;18.90;99.90;;;;;;5047932;28;20469;-82
2023/06/11 02:26:15;;;;;;;0.70;0.70;;;18.90;99.90;;;;;;5047857;28;20986;-84
2023/06/11 02:28:42;;;;;;;0.50;0.40;;;18.90;99.90;;;;;;5047485;28;20445;-82
2023/06/11 02:31:09;;;;;;;1.03;1.03;;;18.80;99.90;;;;;;5044717;28;20549;-81
2023/06/11 02:33:36;;;;;;;0.50;0.40;;;18.80;99.90;;;;;;5036089;28;20992;-84
2023/06/11 02:36:03;;;;;;;0.50;0.30;;;18.80;99.90;;;;;;5047505;28;20458;-82
2023/06/11 02:38:31;;;;;;;0.50;0.40;;;18.70;99.90;;;;;;5047815;28;20549;-84
2023/06/11 02:40:58;;;;;;;0.50;0.37;;;18.70;99.90;;;;;;5047088;28;20461;-84
2023/06/11 02:43:24;;;;;;;0.50;0.30;;;18.60;99.90;;;;;;5047567;28;20873;-83
2023/06/11 02:45:51;;;;;;;0.50;0.40;;;18.60;99.90;;;;;;5047322;28;20466;-80
2023/06/11 02:48:18;;;;;;;0.50;0.30;;;18.60;99.90;;;;;;5045721;28;20493;-82
2023/06/11 02:50:45;;;;;;;0.50;0.40;;;18.60;99.90;;;;;;5046761;28;20450;-81
2023/06/11 02:53:12;;;;;;;0.50;0.30;;;18.60;99.90;;;;;;5046664;28;20454;-83
2023/06/11 02:55:40;;;;;;;0.50;0.40;;;18.50;99.90;;;;;;5046653;28;20529;-85
2023/06/11 02:58:07;;;;;;;1.27;0.90;;;18.50;99.90;;;;;;5046840;28;20533;-84
2023/06/11 03:00:34;;;;;;;0.50;0.30;;;18.40;99.90;;;;;;5045240;28;20534;-83
2023/06/11 03:03:00;;;;;;;0.50;0.40;;;18.40;99.90;;;;;;5047227;28;20442;-83
2023/06/11 03:05:27;;;;;;;0.50;0.37;;;18.40;99.90;;;;;;5047293;28;20525;-83
2023/06/11 03:07:54;;;;;;;0.50;0.40;;;18.40;99.90;;;;;;5040186;28;21016;-80
2023/06/11 03:10:21;;;;;;;1.73;0.90;;;18.40;99.90;;;;;;5039485;28;20462;-82
2023/06/11 03:12:49;;;;;;;0.50;0.30;;;18.40;99.90;;;;;;5037646;28;20502;-80
2023/06/11 03:15:16;;;;;;;0.50;0.40;;;18.30;99.90;;;;;;5036942;28;20499;-81
2023/06/11 03:17:43;;;;;;;0.50;0.40;;;18.30;99.90;;;;;;5036740;28;20506;-81
2023/06/11 03:20:10;;;;;;;0.50;0.40;;;18.30;99.90;;;;;;5036519;28;20501;-81
2023/06/11 03:22:37;;;;;;;0.50;0.40;;;18.30;99.90;;;;;;5036426;28;20735;-80
2023/06/11 03:25:05;;;;;;;0.50;0.40;;;18.20;99.90;;;;;;5036892;28;20501;-83
2023/06/11 03:27:32;;;;;;;0.50;0.40;;;18.20;99.90;;;;;;5037402;28;20474;-80
2023/06/11 03:30:00;;;;;;;0.57;0.50;;;18.20;99.90;;;;;;5036263;28;20538;-80
2023/06/11 03:32:27;;;;;;;1.43;1.33;;;18.20;99.90;;;;;;5036673;28;20517;-82
2023/06/11 03:34:54;;;;;;;5.23;1.60;;;18.20;99.90;;;;;;5036982;28;20480;-81
2023/06/11 03:37:20;;;;;;;0.50;0.40;;;18.20;99.90;;;;;;5037308;28;20438;-81
2023/06/11 03:39:47;;;;;;;0.50;0.40;;;18.20;99.90;;;;;;5036225;28;21016;-83
2023/06/11 03:42:14;;;;;;;0.50;0.40;;;18.20;99.90;;;;;;5037133;28;20470;-79
2023/06/11 03:44:41;;;;;;;0.50;0.30;;;18.20;99.90;;;;;;5043424;28;20430;-82
2023/06/11 03:47:09;;;;;;;0.50;0.40;;;18.20;99.90;;;;;;5044482;28;20469;-80
2023/06/11 03:49:36;;;;;;;0.50;0.40;;;18.20;99.90;;;;;;5042410;28;20464;-82
2023/06/11 03:52:03;;;;;;;0.50;0.40;;;18.20;99.90;;;;;;5041409;28;20457;-82
2023/06/11 03:54:30;;;;;;;1.90;1.43;;;18.20;99.90;;;;;;5043574;28;21024;-84
2023/06/11 03:56:56;;;;;;;0.90;0.80;;;18.20;99.90;;;;;;5038561;28;20437;-82
2023/06/11 03:59:23;;;;;;;0.50;0.40;;;18.20;99.90;;;;;;5039475;28;20556;-82
2023/06/11 04:01:50;;;;;;;0.50;0.40;;;18.30;99.90;;;;;;5038908;28;20466;-83
2023/06/11 04:04:18;;;;;;;0.50;0.30;;;18.30;99.90;;;;;;5039735;28;20429;-83
2023/06/11 04:06:45;;;;;;;0.50;0.30;;;18.30;99.90;;;;;;5038625;28;20469;-82
2023/06/11 04:09:12;;;;;;;0.50;0.40;;;18.30;99.90;;;;;;5030958;28;20489;-82
2023/06/11 04:11:39;;;;;;;0.50;0.30;;;18.30;99.90;;;;;;5039665;28;20522;-83
2023/06/11 04:14:05;;;;;;;1.47;1.47;;;18.30;99.90;;;;;;5038941;28;20434;-83
2023/06/11 04:16:32;;;;;;;0.50;0.40;;;18.30;99.90;;;;;;5039083;28;20521;-81
2023/06/11 04:18:59;;;;;;;0.50;0.40;;;18.30;99.90;;;;;;5038990;28;20509;-82
2023/06/11 04:21:27;;;;;;;0.50;0.40;;;18.30;99.90;;;;;;5038637;28;20438;-83
2023/06/11 04:23:55;;;;;;;0.50;0.40;;;18.30;99.90;;;;;;5039599;28;20515;-82
2023/06/11 04:26:23;;;;;;;0.50;0.40;;;18.40;99.90;;;;;;5039353;28;20477;-84
2023/06/11 04:28:52;;;;;;;0.50;0.40;;;18.50;99.90;;;;;;5043252;28;20503;-83
2023/06/11 04:31:19;;;;;;;0.50;0.40;;;18.50;99.90;;;;;;5047810;28;20821;-80
2023/06/11 04:33:47;;;;;;;0.50;0.40;;;18.50;99.90;;;;;;5047029;28;20449;-82
2023/06/11 04:36:14;;;;;;;0.50;0.40;;;18.50;99.90;;;;;;5038316;28;20461;-83
2023/06/11 04:38:44;;;;;;;0.50;0.40;;;18.50;99.90;;;;;;5048366;28;20480;-82
2023/06/11 04:41:11;;;;;;;0.97;0.97;;;18.60;99.90;;;;;;5048956;28;20434;-80
2023/06/11 04:43:39;;;;;;;0.50;0.40;;;18.60;99.90;;;;;;5051259;28;20448;-82
2023/06/11 04:46:06;;;;;;;0.50;0.40;;;18.70;99.90;;;;;;5051419;28;20507;-80
2023/06/11 04:48:33;;;;;;;0.50;0.30;;;18.70;99.90;;;;;;5051291;28;20457;-81
2023/06/11 04:51:00;;;;;;;0.50;0.40;;;18.70;99.90;;;;;;5051229;28;20517;-80
2023/06/11 04:53:28;;;;;;;0.50;0.40;;;18.80;99.90;;;;;;5051270;28;20481;-81
2023/06/11 04:55:58;;;;;;;0.70;0.70;;;18.80;99.90;;;;;;5050768;28;20482;-80
2023/06/11 04:58:26;;;;;;;0.50;0.40;;;18.90;99.90;;;;;;5051331;28;20495;-82
2023/06/11 05:00:56;;;;;;;0.50;0.40;;;19.00;99.90;;;;;;5051119;28;20461;-80
2023/06/11 05:03:24;;;;;;;0.50;0.40;;;19.10;99.90;;;;;;5047487;28;20442;-82
2023/06/11 05:05:52;;;;;;;0.50;0.30;;;19.10;99.90;;;;;;5042271;28;20500;-82
2023/06/11 05:08:20;;;;;;;0.83;0.70;;;19.20;99.90;;;;;;5043221;28;20787;-83
2023/06/11 05:10:47;;;;;;;0.50;0.40;;;19.30;99.90;;;;;;5042907;28;20969;-81
2023/06/11 05:13:15;;;;;;;0.60;0.37;;;19.40;99.90;;;;;;5042774;28;20600;-82
2023/06/11 05:15:42;;;;;;;0.50;0.33;;;19.50;99.90;;;;;;5041671;28;20500;-83
2023/06/11 05:18:09;;;;;;;0.60;0.50;;;19.50;99.90;;;;;;5042080;28;20506;-81
2023/06/11 05:20:36;;;;;;;0.50;0.30;;;19.70;99.90;;;;;;5041462;28;20513;-83
2023/06/11 05:23:03;;;;;;;0.50;0.30;;;19.70;99.90;;;;;;5041067;28;20466;-81
2023/06/11 05:25:31;;;;;;;0.50;0.40;;;19.90;99.90;;;;;;5042359;28;20485;-83
2023/06/11 05:28:00;;;;;;;0.80;0.60;;;19.90;99.90;;;;;;5041073;28;20442;-81
2023/06/11 05:30:29;;;;;;;0.60;0.50;;;20.10;99.90;;;;;;5039957;28;20514;-81
2023/06/11 05:32:58;;;;;;;1.63;1.53;;;20.20;99.90;;;;;;5038723;28;20481;-80
2023/06/11 05:35:25;;;;;;;0.80;0.73;;;20.30;99.90;;;;;;5038675;28;20590;-84
2023/06/11 05:37:52;;;;;;;0.50;0.30;;;20.40;99.90;;;;;;5039183;28;20526;-82
2023/06/11 05:40:19;;;;;;;0.53;0.43;;;20.50;99.90;;;;;;5040297;28;20474;-82
2023/06/11 05:42:46;;;;;;;1.23;1.13;;;20.60;99.90;;;;;;5040463;28;20448;-83
2023/06/11 05:45:13;;;;;;;0.70;0.60;;;20.70;99.90;;;;;;5040413;28;20470;-83
2023/06/11 05:47:41;;;;;;;0.50;0.40;;;20.90;99.90;;;;;;5040652;28;20525;-83
2023/06/11 05:50:08;;;;;;;1.57;0.87;;;21.00;99.90;;;;;;5039887;28;20482;-82
2023/06/11 05:52:35;;;;;;;2.20;1.27;;;21.10;99.90;;;;;;5040505;28;20802;-82
2023/06/11 05:55:02;;;;;;;0.77;0.50;;;21.20;99.90;;;;;;5040337;28;20526;-83
2023/06/11 05:57:29;;;;;;;0.50;0.40;;;21.30;99.90;;;;;;5039844;28;20933;-82
2023/06/11 05:59:56;;;;;;;0.60;0.57;;;21.50;99.90;;;;;;5039980;28;20532;-83
2023/06/11 06:02:23;;;;;;;0.50;0.40;;;21.60;99.90;;;;;;5039953;28;20493;-82
2023/06/11 06:04:51;;;;;;;0.60;0.50;;;21.80;99.90;;;;;;5040009;28;20448;-83
2023/06/11 06:07:19;;;;;;;2.17;2.00;;;21.90;99.90;;;;;;5032037;28;20492;-83
2023/06/11 06:09:45;;;;;;;0.53;0.40;;;22.10;99.90;;;;;;5040225;28;20478;-80
2023/06/11 06:12:12;;;;;;;0.50;0.30;;;22.30;99.90;;;;;;5039994;28;20557;-83
2023/06/11 06:14:39;;;;;;;0.63;0.63;;;22.40;99.90;;;;;;5039541;28;21051;-82
2023/06/11 06:17:06;;;;;;;0.50;0.40;;;22.60;99.90;;;;;;5039745;28;20876;-82
2023/06/11 06:19:33;;;;;;;1.80;1.70;;;22.80;99.90;;;;;;5039460;28;20473;-82
2023/06/11 06:22:01;;;;;;;0.50;0.30;;;22.90;99.90;;;;;;5041274;28;20805;-83
2023/06/11 06:24:28;;;;;;;1.33;1.07;;;23.00;99.90;;;;;;5039130;28;21024;-83
2023/06/11 06:26:58;;;;;;;0.50;0.30;;;23.20;99.90;;;;;;5040176;28;20518;-80
2023/06/11 06:29:25;;;;;;;0.50;0.40;;;23.40;99.90;;;;;;5038682;28;20969;-82
2023/06/11 06:31:53;;;;;;;0.50;0.30;;;23.60;99.90;;;;;;5039332;28;20496;-82
2023/06/11 06:34:19;;;;;;;0.50;0.30;;;23.80;99.90;;;;;;5038509;28;20509;-81
2023/06/11 06:36:46;;;;;;;0.50;0.40;;;24.00;99.90;;;;;;5038748;28;20524;-82
2023/06/11 06:39:15;;;;;;;1.10;1.07;;;24.10;99.90;;;;;;5038231;28;20558;-83
2023/06/11 06:41:42;;;;;;;0.77;0.77;;;24.40;99.90;;;;;;5038307;28;20485;-83
2023/06/11 06:44:08;;;;;;;0.63;0.63;;;24.70;99.90;;;;;;5038494;28;20462;-83
2023/06/11 06:46:35;;;;;;;0.50;0.33;;;25.40;99.90;;;;;;5038435;28;20452;-83
2023/06/11 06:49:02;;;;;;;0.50;0.30;;;26.20;99.90;;;;;;5037720;28;20442;-83
2023/06/11 06:51:30;;;;;;;1.10;1.00;;;26.80;99.90;;;;;;5039006;28;20466;-85
2023/06/11 06:53:57;;;;;;;1.43;1.33;;;27.70;99.90;;;;;;5039854;28;20537;-83
2023/06/11 06:56:26;;;;;;;2.33;2.23;;;27.90;99.90;;;;;;5039365;28;20500;-83
2023/06/11 06:58:53;;;;;;;1.03;0.93;;;27.80;94.00;;;;;;5038375;28;20442;-84
2023/06/11 07:01:20;;;;;;;0.67;0.57;;;27.70;95.10;;;;;;5038699;28;20430;-83
2023/06/11 07:03:47;;;;;;;2.50;2.30;;;27.90;94.10;;;;;;5038453;28;20468;-82
2023/06/11 07:06:14;;;;;;;3.57;2.63;;;28.20;92.30;;;;;;5038453;28;20472;-83
2023/06/11 07:08:41;;;;;;;1.57;1.07;;;28.10;88.90;;;;;;5037502;28;20517;-83
2023/06/11 07:11:08;;;;;;;0.53;0.37;;;27.80;89.90;;;;;;5037704;28;20509;-83
2023/06/11 07:13:36;;;;;;;0.90;0.77;;;28.00;89.50;;;;;;5038321;28;20906;-83
2023/06/11 07:16:04;;;;;;;1.23;1.13;;;28.20;89.50;;;;;;5036662;28;20801;-82
2023/06/11 07:18:32;;;;;;;1.87;1.77;;;28.30;84.50;;;;;;5037032;28;20484;-82
2023/06/11 07:20:59;;;;;;;3.30;1.67;;;28.20;82.60;;;;;;5037115;28;20481;-83
2023/06/11 07:23:26;;;;;;;2.77;2.53;;;27.70;82.90;;;;;;5037430;28;20474;-83
2023/06/11 07:25:55;;;;;;;1.87;1.73;;;27.60;82.60;;;;;;5037115;28;20470;-82
2023/06/11 07:28:22;;;;;;;1.40;1.30;;;27.60;84.70;;;;;;5036590;28;20446;-83
2023/06/11 07:30:50;;;;;;;0.60;0.53;;;27.80;84.00;;;;;;5036950;28;20462;-82
2023/06/11 07:33:17;;;;;;;0.80;0.80;;;28.10;83.30;;;;;;5036306;28;20533;-83
2023/06/11 07:35:44;;;;;;;2.70;2.50;;;28.40;81.30;;;;;;5036306;28;20492;-82
2023/06/11 07:38:11;;;;;;;2.90;2.07;;;28.70;79.80;;;;;;5036404;28;21000;-82
2023/06/11 07:40:38;;;;;;;2.20;2.00;;;28.90;77.50;;;;;;5036952;28;20564;-83
2023/06/11 07:43:04;;;;;;;1.67;0.90;;;29.10;77.10;;;;;;5037500;28;20549;-83
2023/06/11 07:45:31;;;;;;;0.50;0.30;;;28.50;76.90;;;;;;5036461;28;20506;-83
2023/06/11 07:48:00;;;;;;;1.50;1.40;;;28.30;78.30;;;;;;5036318;28;20961;-82
2023/06/11 07:50:27;;;;;;;1.17;1.07;;;28.30;78.50;;;;;;5029267;28;20454;-82
2023/06/11 07:52:54;;;;;;;2.30;1.80;;;28.30;78.30;;;;;;5036534;28;20513;-82
2023/06/11 07:55:22;;;;;;;2.10;1.40;;;28.80;78.50;;;;;;5036214;28;20434;-82
2023/06/11 07:57:49;;;;;;;1.47;1.17;;;29.50;77.30;;;;;;5036018;28;20442;-83
2023/06/11 08:00:17;;;;;;;1.90;1.80;;;29.80;73.70;;;;;;5037254;28;20478;-82
2023/06/11 08:02:44;;;;;;;2.10;1.80;;;29.60;72.70;;;;;;5038657;28;20443;-83
2023/06/11 08:05:17;;;;;;;5.53;2.30;;;29.40;72.50;;;;;;5042509;28;20438;-82
2023/06/11 08:07:44;;;;;;;2.67;2.43;;;29.10;72.40;;;;;;5038169;28;20474;-82
2023/06/11 08:10:11;;;;;;;0.50;0.30;;;28.80;73.30;;;;;;5038930;28;20541;-82
2023/06/11 08:12:38;;;;;;;1.37;1.27;;;29.20;75.80;;;;;;5037299;28;20825;-82
2023/06/11 08:15:06;;;;;;;0.60;0.50;;;29.30;71.90;;;;;;5035801;28;20980;-82
2023/06/11 08:17:33;;;;;;;0.50;0.30;;;29.90;73.00;;;;;;5036245;28;20461;-82
2023/06/11 08:20:00;;;;;;;0.50;0.30;;;31.10;75.70;;;;;;5035674;28;20477;-82
2023/06/11 08:22:28;;;;;;;0.90;0.90;;;31.90;69.20;;;;;;5036106;28;20449;-82
2023/06/11 08:24:55;;;;;;;0.50;0.50;;;32.30;66.10;;;;;;5036037;28;20822;-82
2023/06/11 08:27:22;;;;;;;1.33;1.23;;;32.60;64.10;;;;;;5035682;28;20443;-82
2023/06/11 08:29:49;;;;;;;0.87;0.80;;;32.80;62.00;;;;;;5036007;28;20526;-82
2023/06/11 08:32:16;;;;;;;2.90;2.70;;;32.90;64.50;;;;;;5036212;28;20502;-83
2023/06/11 08:34:43;;;;;;;0.50;0.50;;;32.60;63.70;;;;;;5036625;28;20516;-83
2023/06/11 08:37:10;;;;;;;0.77;0.77;;;32.40;61.30;;;;;;5036490;28;20521;-82
2023/06/11 08:39:38;;;;;;;0.80;0.80;;;32.60;61.10;;;;;;5037233;28;20500;-83
2023/06/11 08:42:05;;;;;;;0.50;0.30;;;32.40;60.20;;;;;;5036280;28;20506;-83
2023/06/11 08:44:32;;;;;;;2.20;2.10;;;31.90;60.80;;;;;;5036689;28;20465;-81
2023/06/11 08:47:03;;;;;;;0.60;0.50;;;31.80;60.10;;;;;;5036133;28;20469;-82
2023/06/11 08:49:31;;;;;;;0.60;0.57;;;31.20;62.50;;;;;;5036140;28;20466;-82
2023/06/11 08:52:02;;;;;;;2.03;1.63;;;31.60;62.60;;;;;;5035982;28;20445;-82
2023/06/11 08:54:29;;;;;;;0.70;0.67;;;31.60;60.90;;;;;;5036058;28;20520;-83
2023/06/11 08:56:58;;;;;;;0.50;0.40;;;32.10;61.70;;;;;;5036631;28;20505;-80
2023/06/11 08:59:25;;;;;;;0.50;0.40;;;32.10;60.60;;;;;;5035988;28;20463;-82
2023/06/11 09:01:52;;;;;;;1.67;1.57;;;32.50;60.00;;;;;;5036138;28;20521;-82
2023/06/11 09:04:19;;;;;;;0.50;0.40;;;33.00;61.00;;;;;;5035787;28;20470;-83
2023/06/11 09:06:50;;;;;;;2.17;2.00;;;33.50;59.30;;;;;;5036352;28;20442;-83
2023/06/11 09:09:18;;;;;;;0.50;0.30;;;33.70;58.10;;;;;;5035288;28;20465;-83
2023/06/11 09:11:46;;;;;;;1.17;1.07;;;34.00;58.80;;;;;;5035638;28;20449;-82
2023/06/11 09:14:15;;;;;;;1.70;1.60;;;34.70;57.50;;;;;;5038775;28;20446;-82
2023/06/11 09:16:43;;;;;;;0.77;0.60;;;34.10;57.00;;;;;;5039629;28;20438;-83
2023/06/11 09:19:12;;;;;;;3.13;2.47;;;33.90;57.50;;;;;;5039542;28;20509;-82
2023/06/11 09:21:38;;;;;;;1.57;1.00;;;33.10;58.00;;;;;;5039343;28;20566;-83
2023/06/11 09:24:09;;;;;;;1.50;1.40;;;33.30;57.40;;;;;;5039246;28;20512;-83
2023/06/11 09:26:36;;;;;;;0.50;0.43;;;33.30;58.00;;;;;;5040154;28;20925;-83
2023/06/11 09:29:05;;;;;;;0.70;0.70;;;32.20;58.30;;;;;;5040438;28;20962;-83
2023/06/11 09:31:34;;;;;;;1.47;1.37;;;31.60;58.10;;;;;;5039787;28;20429;-83
2023/06/11 09:34:06;;;;;;;1.60;1.50;;;31.80;58.40;;;;;;5040154;28;20469;-82
2023/06/11 09:36:32;;;;;;;2.70;1.87;;;32.10;58.50;;;;;;5032241;28;20442;-82
2023/06/11 09:39:00;;;;;;;0.50;0.30;;;31.90;58.00;;;;;;5040171;28;20505;-82
2023/06/11 09:41:27;;;;;;;1.10;1.03;;;32.20;59.30;;;;;;5039827;28;20484;-83
2023/06/11 09:43:54;;;;;;;0.60;0.40;;;32.20;57.80;;;;;;5040620;28;20524;-82
2023/06/11 09:46:22;;;;;;;0.50;0.40;;;31.80;59.20;;;;;;5038873;28;20510;-82
2023/06/11 09:48:51;;;;;;;1.07;1.07;;;32.90;59.20;;;;;;5038774;28;20442;-83
2023/06/11 09:51:21;;;;;;;4.63;1.97;;;34.10;58.50;;;;;;5038721;28;20445;-83
2023/06/11 09:53:51;;;;;;;0.50;0.40;;;34.60;56.00;;;;;;5039033;28;20977;-81
2023/06/11 09:56:19;;;;;;;0.60;0.60;;;34.90;55.30;;;;;;5039246;28;20802;-83
2023/06/11 09:58:49;;;;;;;1.43;1.37;;;34.40;54.10;;;;;;5039001;28;20442;-81
2023/06/11 10:01:16;;;;;;;1.57;1.47;;;34.40;53.60;;;;;;5039125;28;20472;-83
2023/06/11 10:03:43;;;;;;;1.90;1.60;;;33.90;53.70;;;;;;5038602;28;20524;-83
2023/06/11 10:06:16;;;;;;;0.50;0.33;;;34.00;53.70;;;;;;5038836;28;20442;-82
2023/06/11 10:08:48;;;;;;;1.33;0.77;;;34.30;54.70;;;;;;5039575;28;20534;-83
2023/06/11 10:11:17;;;;;;;0.50;0.30;;;34.70;53.50;;;;;;5038570;28;20430;-83
2023/06/11 10:13:57;;;;;;;1.70;1.60;;;35.00;52.60;;;;;;5039337;28;20445;-83
2023/06/11 10:16:25;;;;;;;0.50;0.50;;;35.10;51.80;;;;;;5038853;28;20496;-82
2023/06/11 10:18:52;;;;;;;0.60;0.50;;;35.30;50.80;;;;;;5038945;28;20472;-83
2023/06/11 10:21:20;;;;;;;1.47;1.10;;;35.10;51.00;;;;;;5039502;28;21000;-80
2023/06/11 10:23:52;;;;;;;0.70;0.70;;;34.50;51.00;;;;;;5040420;28;20996;-83
2023/06/11 10:26:19;;;;;;;0.50;0.50;;;34.60;51.40;;;;;;5038962;28;20526;-82
2023/06/11 10:28:48;;;;;;;0.47;0.40;;;35.20;50.90;;;;;;5039187;28;20494;-82
2023/06/11 10:31:26;;;;;;;1.43;1.20;;;35.10;51.50;;;;;;5038150;28;20435;-83
2023/06/11 10:33:53;;;;;;;4.93;2.40;;;35.40;49.90;;;;;;5038671;28;20444;-81
2023/06/11 10:36:26;;;;;;;1.50;0.87;;;35.50;48.10;;;;;;5038283;28;20446;-80
2023/06/11 10:38:53;;;;;;;3.33;0.80;;;34.30;48.10;;;;;;5038521;28;20502;-80
2023/06/11 10:41:29;;;;;;;0.70;0.60;;;34.40;50.50;;;;;;5038326;28;20493;-83
2023/06/11 10:43:57;;;;;;;0.50;0.30;;;35.20;50.20;;;;;;5038486;28;20447;-83
2023/06/11 10:46:24;;;;;;;2.93;1.13;;;36.60;51.20;;;;;;5037749;28;20449;-82
2023/06/11 10:48:53;;;;;;;0.63;0.63;;;37.60;47.20;;;;;;5038570;28;20449;-83
2023/06/11 10:51:21;;;;;;;1.13;1.03;;;36.70;47.00;;;;;;5037295;28;20457;-83
2023/06/11 10:53:58;;;;;;;0.60;0.40;;;36.40;47.70;;;;;;5037314;28;20517;-83
2023/06/11 10:56:25;;;;;;;0.60;0.60;;;35.10;47.30;;;;;;5036806;28;20442;-83
2023/06/11 10:58:55;;;;;;;0.70;0.70;;;35.50;48.70;;;;;;5034374;28;20486;-80
2023/06/11 11:01:22;;;;;;;0.40;0.30;;;36.10;47.60;;;;;;5032845;28;20474;-81
2023/06/11 11:03:51;;;;;;;0.40;0.30;;;35.90;48.50;;;;;;5034377;28;20485;-81
2023/06/11 11:06:26;;;;;;;1.90;1.23;;;36.60;48.20;;;;;;5033979;28;20964;-81
2023/06/11 11:08:56;;;;;;;0.40;0.40;;;37.20;47.50;;;;;;5035497;28;20447;-82
2023/06/11 11:11:23;;;;;;;1.70;1.53;;;37.60;47.00;;;;;;5036769;28;20829;-82
2023/06/11 11:13:50;;;;;;;1.13;0.90;;;38.20;48.00;;;;;;5037155;28;20529;-82
2023/06/11 11:16:19;;;;;;;0.60;0.40;;;38.80;46.40;;;;;;5036908;28;20451;-80
2023/06/11 11:18:47;;;;;;;0.60;0.37;;;39.00;44.50;;;;;;5036262;28;21042;-82
2023/06/11 11:21:14;;;;;;;1.87;1.73;;;38.70;44.60;;;;;;5036393;28;20533;-82
2023/06/11 11:23:41;;;;;;;1.90;1.80;;;37.60;43.50;;;;;;5033982;28;20443;-81
2023/06/11 11:26:10;;;;;;;0.60;0.40;;;36.30;45.30;;;;;;5032359;28;20598;-80
2023/06/11 11:28:37;;;;;;;4.90;1.60;;;34.80;46.90;;;;;;5024570;28;20930;-82
2023/06/11 11:31:05;;;;;;;0.80;0.43;;;34.60;46.80;;;;;;5032056;28;20454;-80
2023/06/11 11:33:35;;;;;;;0.50;0.40;;;34.40;48.50;;;;;;5032330;28;20439;-80
2023/06/11 11:36:04;;;;;;;0.70;0.57;;;35.20;49.40;;;;;;5032496;28;20514;-80
2023/06/11 11:38:35;;;;;;;0.50;0.40;;;34.90;47.00;;;;;;5032189;28;20457;-80
2023/06/11 11:41:02;;;;;;;1.40;1.30;;;34.20;48.20;;;;;;5032731;28;20489;-80
2023/06/11 11:43:38;;;;;;;0.60;0.60;;;34.40;47.90;;;;;;5033589;28;20445;-80
2023/06/11 11:46:16;;;;;;;4.20;1.57;;;34.90;48.10;;;;;;5032453;28;20787;-80
2023/06/11 11:48:43;;;;;;;2.43;2.10;;;34.80;46.60;;;;;;5036668;28;20435;-83
2023/06/11 11:51:11;;;;;;;0.73;0.60;;;34.60;47.90;;;;;;5035591;28;20470;-80
2023/06/11 11:53:38;;;;;;;0.50;0.30;;;34.70;46.20;;;;;;5035281;28;20457;-83
2023/06/11 11:56:05;;;;;;;0.87;0.87;;;35.40;48.00;;;;;;5036526;28;20542;-83
2023/06/11 11:58:38;;;;;;;3.67;0.63;;;35.50;46.90;;;;;;5032275;28;20442;-82
2023/06/11 12:01:08;;;;;;;1.83;1.73;;;35.90;46.20;;;;;;5036299;28;20489;-83
2023/06/11 12:03:35;;;;;;;0.73;0.70;;;35.90;44.50;;;;;;5037366;28;20477;-83
2023/06/11 12:06:04;;;;;;;0.40;0.30;;;35.20;46.50;;;;;;5041410;28;20532;-80
2023/06/11 12:08:31;;;;;;;0.40;0.37;;;35.60;47.20;;;;;;5039681;28;20439;-82
2023/06/11 12:10:59;;;;;;;1.00;0.70;;;36.00;46.20;;;;;;5038876;28;20455;-80
2023/06/11 12:13:26;;;;;;;2.50;1.63;;;35.70;45.80;;;;;;5040141;28;20530;-83
2023/06/11 12:15:55;;;;;;;1.47;1.17;;;35.90;46.20;;;;;;5037452;28;20449;-83
2023/06/11 12:18:22;;;;;;;3.63;3.33;;;36.60;45.40;;;;;;5034113;28;20605;-81
2023/06/11 12:20:49;;;;;;;1.63;1.53;;;36.90;44.10;;;;;;5032518;28;20477;-80
2023/06/11 12:23:15;;;;;;;1.70;1.60;;;36.20;45.10;;;;;;5033030;28;20525;-82
2023/06/11 12:25:43;;;;;;;0.70;0.70;;;35.70;44.90;;;;;;5033801;28;20445;-82
2023/06/11 12:28:09;;;;;;;0.50;0.30;;;34.80;46.10;;;;;;5037004;28;20990;-83
2023/06/11 12:30:36;;;;;;;1.27;0.87;;;35.40;47.10;;;;;;5035807;28;20545;-82
2023/06/11 12:33:04;;;;;;;2.10;1.77;;;36.00;45.00;;;;;;5036724;28;20988;-83
2023/06/11 12:35:31;;;;;;;0.50;0.43;;;35.90;45.30;;;;;;5035845;28;20443;-83
2023/06/11 12:37:58;;;;;;;1.07;0.87;;;35.50;46.60;;;;;;5035581;28;20439;-84
2023/06/11 12:40:27;;;;;;;0.70;0.70;;;36.10;47.20;;;;;;5036346;28;20518;-83
2023/06/11 12:42:58;;;;;;;0.50;0.50;;;36.10;46.90;;;;;;5035408;28;20474;-80
2023/06/11 12:45:26;;;;;;;2.50;0.90;;;36.60;45.90;;;;;;5035454;28;20446;-82
2023/06/11 12:47:53;;;;;;;0.90;0.90;;;36.40;45.50;;;;;;5036260;28;20443;-83
2023/06/11 12:50:21;;;;;;;0.40;0.30;;;37.10;45.50;;;;;;5040089;28;20466;-83
2023/06/11 12:52:48;;;;;;;1.80;1.50;;;37.10;45.30;;;;;;5040633;28;20443;-83